sensor_id;sensor_type;location;lat;lon;timestamp;P1;durP1;ratioP1;P2;durP2;ratioP2
7493;SDS011;3788;49.902;8.590;2023-10-19T00:01:13;4.37;;;3.97;;
7493;SDS011;3788;49.902;8.590;2023-10-19T00:03:42;4.50;;;3.93;;
7493;SDS011;3788;49.902;8.590;2023-10-19T00:06:09;4.40;;;3.73;;
7493;SDS011;3788;49.902;8.590;2023-10-19T00:08:36;4.03;;;3.73;;
7493;SDS011;3788;49.902;8.590;2023-10-19T00:11:06;4.00;;;3.60;;
7493;SDS011;3788;49.902;8.590;2023-10-19T00:13:34;3.93;;;3.63;;
7493;SDS011;3788;49.902;8.590;2023-10-19T00:16:03;5.13;;;4.73;;
7493;SDS011;3788;49.902;8.590;2023-10-19T00:18:36;4.30;;;3.90;;
7493;SDS011;3788;49.902;8.590;2023-10-19T00:21:09;4.10;;;3.70;;
7493;SDS011;3788;49.902;8.590;2023-10-19T00:23:44;4.20;;;3.77;;
7493;SDS011;3788;49.902;8.590;2023-10-19T00:26:14;4.20;;;3.80;;
7493;SDS011;3788;49.902;8.590;2023-10-19T00:28:44;4.10;;;3.57;;
7493;SDS011;3788;49.902;8.590;2023-10-19T00:31:11;4.97;;;3.90;;
7493;SDS011;3788;49.902;8.590;2023-10-19T00:33:38;5.07;;;4.63;;
7493;SDS011;3788;49.902;8.590;2023-10-19T00:36:06;4.77;;;4.37;;
7493;SDS011;3788;49.902;8.590;2023-10-19T00:38:35;6.93;;;6.23;;
7493;SDS011;3788;49.902;8.590;2023-10-19T00:41:15;5.60;;;5.10;;
7493;SDS011;3788;49.902;8.590;2023-10-19T00:43:47;5.43;;;4.93;;
7493;SDS011;3788;49.902;8.590;2023-10-19T00:46:17;5.43;;;4.93;;
7493;SDS011;3788;49.902;8.590;2023-10-19T00:48:49;5.00;;;4.57;;
7493;SDS011;3788;49.902;8.590;2023-10-19T00:51:20;4.20;;;3.80;;
7493;SDS011;3788;49.902;8.590;2023-10-19T00:54:08;5.03;;;4.47;;
7493;SDS011;3788;49.902;8.590;2023-10-19T00:56:40;5.40;;;4.90;;
7493;SDS011;3788;49.902;8.590;2023-10-19T00:59:13;5.30;;;4.80;;
7493;SDS011;3788;49.902;8.590;2023-10-19T01:01:47;5.37;;;4.87;;
7493;SDS011;3788;49.902;8.590;2023-10-19T01:04:19;6.20;;;5.60;;
7493;SDS011;3788;49.902;8.590;2023-10-19T01:06:47;6.10;;;5.50;;
7493;SDS011;3788;49.902;8.590;2023-10-19T01:09:27;5.70;;;5.20;;
7493;SDS011;3788;49.902;8.590;2023-10-19T01:11:54;8.20;;;5.93;;
7493;SDS011;3788;49.902;8.590;2023-10-19T01:14:25;8.63;;;6.50;;
7493;SDS011;3788;49.902;8.590;2023-10-19T01:16:54;7.77;;;7.00;;
7493;SDS011;3788;49.902;8.590;2023-10-19T01:19:21;9.43;;;8.50;;
7493;SDS011;3788;49.902;8.590;2023-10-19T01:21:48;9.33;;;8.30;;
7493;SDS011;3788;49.902;8.590;2023-10-19T01:24:19;12.77;;;11.33;;
7493;SDS011;3788;49.902;8.590;2023-10-19T01:26:57;12.07;;;10.77;;
7493;SDS011;3788;49.902;8.590;2023-10-19T01:29:25;11.63;;;10.20;;
7493;SDS011;3788;49.902;8.590;2023-10-19T01:31:52;11.07;;;9.97;;
7493;SDS011;3788;49.902;8.590;2023-10-19T01:34:30;11.47;;;10.27;;
7493;SDS011;3788;49.902;8.590;2023-10-19T01:36:58;11.80;;;10.57;;
7493;SDS011;3788;49.902;8.590;2023-10-19T01:39:29;11.87;;;10.30;;
7493;SDS011;3788;49.902;8.590;2023-10-19T01:41:56;10.83;;;9.73;;
7493;SDS011;3788;49.902;8.590;2023-10-19T01:44:23;10.73;;;9.70;;
7493;SDS011;3788;49.902;8.590;2023-10-19T01:46:50;10.27;;;9.20;;
7493;SDS011;3788;49.902;8.590;2023-10-19T01:49:16;9.13;;;8.23;;
7493;SDS011;3788;49.902;8.590;2023-10-19T01:51:51;9.73;;;8.20;;
7493;SDS011;3788;49.902;8.590;2023-10-19T01:54:19;12.50;;;9.33;;
7493;SDS011;3788;49.902;8.590;2023-10-19T01:56:49;10.53;;;9.30;;
7493;SDS011;3788;49.902;8.590;2023-10-19T01:59:19;11.47;;;9.73;;
7493;SDS011;3788;49.902;8.590;2023-10-19T02:01:46;13.13;;;11.13;;
7493;SDS011;3788;49.902;8.590;2023-10-19T02:04:14;10.60;;;9.43;;
7493;SDS011;3788;49.902;8.590;2023-10-19T02:06:40;10.90;;;9.80;;
7493;SDS011;3788;49.902;8.590;2023-10-19T02:09:07;12.43;;;9.70;;
7493;SDS011;3788;49.902;8.590;2023-10-19T02:11:35;10.47;;;9.47;;
7493;SDS011;3788;49.902;8.590;2023-10-19T02:14:04;12.37;;;10.93;;
7493;SDS011;3788;49.902;8.590;2023-10-19T02:16:38;12.73;;;10.50;;
7493;SDS011;3788;49.902;8.590;2023-10-19T02:19:05;13.47;;;11.00;;
7493;SDS011;3788;49.902;8.590;2023-10-19T02:21:31;13.00;;;11.17;;
7493;SDS011;3788;49.902;8.590;2023-10-19T02:24:03;11.90;;;10.70;;
7493;SDS011;3788;49.902;8.590;2023-10-19T02:26:29;14.17;;;11.37;;
7493;SDS011;3788;49.902;8.590;2023-10-19T02:28:56;11.70;;;10.47;;
7493;SDS011;3788;49.902;8.590;2023-10-19T02:31:24;13.10;;;11.13;;
7493;SDS011;3788;49.902;8.590;2023-10-19T02:33:52;13.47;;;12.07;;
7493;SDS011;3788;49.902;8.590;2023-10-19T02:36:24;13.93;;;11.47;;
7493;SDS011;3788;49.902;8.590;2023-10-19T02:38:53;13.30;;;11.30;;
7493;SDS011;3788;49.902;8.590;2023-10-19T02:41:19;13.90;;;12.13;;
7493;SDS011;3788;49.902;8.590;2023-10-19T02:43:46;14.40;;;11.67;;
7493;SDS011;3788;49.902;8.590;2023-10-19T02:46:16;14.67;;;11.97;;
7493;SDS011;3788;49.902;8.590;2023-10-19T02:48:44;12.93;;;11.37;;
7493;SDS011;3788;49.902;8.590;2023-10-19T02:51:10;13.27;;;11.63;;
7493;SDS011;3788;49.902;8.590;2023-10-19T02:53:38;12.70;;;11.40;;
7493;SDS011;3788;49.902;8.590;2023-10-19T02:56:11;12.90;;;11.50;;
7493;SDS011;3788;49.902;8.590;2023-10-19T02:58:40;14.40;;;11.83;;
7493;SDS011;3788;49.902;8.590;2023-10-19T03:01:13;14.33;;;12.00;;
7493;SDS011;3788;49.902;8.590;2023-10-19T03:03:42;14.30;;;12.80;;
7493;SDS011;3788;49.902;8.590;2023-10-19T03:06:12;16.10;;;13.53;;
7493;SDS011;3788;49.902;8.590;2023-10-19T03:08:38;15.90;;;13.73;;
7493;SDS011;3788;49.902;8.590;2023-10-19T03:11:04;15.43;;;12.30;;
7493;SDS011;3788;49.902;8.590;2023-10-19T03:13:30;15.60;;;13.30;;
7493;SDS011;3788;49.902;8.590;2023-10-19T03:15:58;15.97;;;12.87;;
7493;SDS011;3788;49.902;8.590;2023-10-19T03:18:25;15.27;;;12.33;;
7493;SDS011;3788;49.902;8.590;2023-10-19T03:20:53;16.17;;;12.83;;
7493;SDS011;3788;49.902;8.590;2023-10-19T03:23:20;15.90;;;12.63;;
7493;SDS011;3788;49.902;8.590;2023-10-19T03:25:52;14.30;;;12.80;;
7493;SDS011;3788;49.902;8.590;2023-10-19T03:28:37;15.73;;;12.83;;
7493;SDS011;3788;49.902;8.590;2023-10-19T03:31:05;14.83;;;11.77;;
7493;SDS011;3788;49.902;8.590;2023-10-19T03:33:33;13.93;;;12.43;;
7493;SDS011;3788;49.902;8.590;2023-10-19T03:36:01;14.40;;;12.57;;
7493;SDS011;3788;49.902;8.590;2023-10-19T03:38:31;15.00;;;12.97;;
7493;SDS011;3788;49.902;8.590;2023-10-19T03:40:59;13.87;;;11.63;;
7493;SDS011;3788;49.902;8.590;2023-10-19T03:43:32;15.33;;;12.67;;
7493;SDS011;3788;49.902;8.590;2023-10-19T03:46:01;15.50;;;13.63;;
7493;SDS011;3788;49.902;8.590;2023-10-19T03:48:31;14.37;;;12.60;;
7493;SDS011;3788;49.902;8.590;2023-10-19T03:51:03;16.07;;;13.53;;
7493;SDS011;3788;49.902;8.590;2023-10-19T03:53:31;13.33;;;11.93;;
7493;SDS011;3788;49.902;8.590;2023-10-19T03:55:58;17.33;;;13.93;;
7493;SDS011;3788;49.902;8.590;2023-10-19T03:58:28;15.40;;;12.87;;
7493;SDS011;3788;49.902;8.590;2023-10-19T04:00:55;16.07;;;13.23;;
7493;SDS011;3788;49.902;8.590;2023-10-19T04:03:26;15.30;;;12.67;;
7493;SDS011;3788;49.902;8.590;2023-10-19T04:05:55;16.10;;;13.60;;
7493;SDS011;3788;49.902;8.590;2023-10-19T04:08:25;16.87;;;13.47;;
7493;SDS011;3788;49.902;8.590;2023-10-19T04:10:53;13.37;;;11.97;;
7493;SDS011;3788;49.902;8.590;2023-10-19T04:13:33;15.33;;;12.23;;
7493;SDS011;3788;49.902;8.590;2023-10-19T04:16:01;16.43;;;12.60;;
7493;SDS011;3788;49.902;8.590;2023-10-19T04:18:28;14.77;;;12.97;;
7493;SDS011;3788;49.902;8.590;2023-10-19T04:20:54;15.93;;;13.23;;
7493;SDS011;3788;49.902;8.590;2023-10-19T04:23:22;16.43;;;13.37;;
7493;SDS011;3788;49.902;8.590;2023-10-19T04:25:54;14.17;;;12.67;;
7493;SDS011;3788;49.902;8.590;2023-10-19T04:28:23;16.50;;;13.10;;
7493;SDS011;3788;49.902;8.590;2023-10-19T04:30:58;15.87;;;13.40;;
7493;SDS011;3788;49.902;8.590;2023-10-19T04:33:27;17.47;;;14.67;;
7493;SDS011;3788;49.902;8.590;2023-10-19T04:35:54;15.10;;;12.53;;
7493;SDS011;3788;49.902;8.590;2023-10-19T04:38:25;16.20;;;12.87;;
7493;SDS011;3788;49.902;8.590;2023-10-19T04:40:51;15.90;;;13.20;;
7493;SDS011;3788;49.902;8.590;2023-10-19T04:43:19;16.93;;;13.53;;
7493;SDS011;3788;49.902;8.590;2023-10-19T04:45:46;16.97;;;13.43;;
7493;SDS011;3788;49.902;8.590;2023-10-19T04:48:13;15.90;;;13.83;;
7493;SDS011;3788;49.902;8.590;2023-10-19T04:50:39;15.27;;;12.10;;
7493;SDS011;3788;49.902;8.590;2023-10-19T04:53:07;14.17;;;12.27;;
7493;SDS011;3788;49.902;8.590;2023-10-19T04:55:33;16.90;;;12.60;;
7493;SDS011;3788;49.902;8.590;2023-10-19T04:58:01;14.87;;;11.73;;
7493;SDS011;3788;49.902;8.590;2023-10-19T05:00:28;17.77;;;13.70;;
7493;SDS011;3788;49.902;8.590;2023-10-19T05:02:55;18.40;;;14.17;;
7493;SDS011;3788;49.902;8.590;2023-10-19T05:05:21;16.33;;;12.30;;
7493;SDS011;3788;49.902;8.590;2023-10-19T05:07:48;14.80;;;11.73;;
7493;SDS011;3788;49.902;8.590;2023-10-19T05:10:15;14.07;;;11.70;;
7493;SDS011;3788;49.902;8.590;2023-10-19T05:12:42;15.97;;;13.10;;
7493;SDS011;3788;49.902;8.590;2023-10-19T05:15:10;14.70;;;11.90;;
7493;SDS011;3788;49.902;8.590;2023-10-19T05:17:37;16.87;;;12.40;;
7493;SDS011;3788;49.902;8.590;2023-10-19T05:20:04;14.60;;;11.43;;
7493;SDS011;3788;49.902;8.590;2023-10-19T05:22:32;12.93;;;11.50;;
7493;SDS011;3788;49.902;8.590;2023-10-19T05:24:59;12.10;;;10.33;;
7493;SDS011;3788;49.902;8.590;2023-10-19T05:27:26;13.40;;;11.43;;
7493;SDS011;3788;49.902;8.590;2023-10-19T05:29:52;14.43;;;11.37;;
7493;SDS011;3788;49.902;8.590;2023-10-19T05:32:21;14.03;;;11.33;;
7493;SDS011;3788;49.902;8.590;2023-10-19T05:34:49;10.57;;;9.40;;
7493;SDS011;3788;49.902;8.590;2023-10-19T05:37:15;12.97;;;10.93;;
7493;SDS011;3788;49.902;8.590;2023-10-19T05:39:42;26.03;;;13.20;;
7493;SDS011;3788;49.902;8.590;2023-10-19T05:42:09;20.57;;;12.97;;
7493;SDS011;3788;49.902;8.590;2023-10-19T05:44:36;16.13;;;11.60;;
7493;SDS011;3788;49.902;8.590;2023-10-19T05:47:05;13.77;;;9.97;;
7493;SDS011;3788;49.902;8.590;2023-10-19T05:49:34;13.30;;;10.53;;
7493;SDS011;3788;49.902;8.590;2023-10-19T05:52:00;12.87;;;11.47;;
7493;SDS011;3788;49.902;8.590;2023-10-19T05:54:28;12.60;;;10.90;;
7493;SDS011;3788;49.902;8.590;2023-10-19T05:56:55;13.13;;;11.67;;
7493;SDS011;3788;49.902;8.590;2023-10-19T05:59:22;15.80;;;12.30;;
7493;SDS011;3788;49.902;8.590;2023-10-19T06:01:51;16.20;;;12.03;;
7493;SDS011;3788;49.902;8.590;2023-10-19T06:04:18;12.97;;;11.37;;
7493;SDS011;3788;49.902;8.590;2023-10-19T06:06:46;13.60;;;11.33;;
7493;SDS011;3788;49.902;8.590;2023-10-19T06:09:13;13.90;;;11.80;;
7493;SDS011;3788;49.902;8.590;2023-10-19T06:11:40;14.53;;;11.50;;
7493;SDS011;3788;49.902;8.590;2023-10-19T06:14:08;13.33;;;12.03;;
7493;SDS011;3788;49.902;8.590;2023-10-19T06:16:35;13.43;;;11.33;;
7493;SDS011;3788;49.902;8.590;2023-10-19T06:19:01;13.07;;;11.70;;
7493;SDS011;3788;49.902;8.590;2023-10-19T06:21:28;14.77;;;11.97;;
7493;SDS011;3788;49.902;8.590;2023-10-19T06:23:57;13.07;;;11.50;;
7493;SDS011;3788;49.902;8.590;2023-10-19T06:26:24;15.23;;;11.90;;
7493;SDS011;3788;49.902;8.590;2023-10-19T06:28:51;14.63;;;12.40;;
7493;SDS011;3788;49.902;8.590;2023-10-19T06:31:22;14.03;;;12.23;;
7493;SDS011;3788;49.902;8.590;2023-10-19T06:33:49;15.00;;;12.50;;
7493;SDS011;3788;49.902;8.590;2023-10-19T06:36:15;16.57;;;13.07;;
7493;SDS011;3788;49.902;8.590;2023-10-19T06:38:42;15.87;;;13.63;;
7493;SDS011;3788;49.902;8.590;2023-10-19T06:41:11;13.77;;;12.33;;
7493;SDS011;3788;49.902;8.590;2023-10-19T06:43:39;15.00;;;13.07;;
7493;SDS011;3788;49.902;8.590;2023-10-19T06:46:06;14.67;;;13.10;;
7493;SDS011;3788;49.902;8.590;2023-10-19T06:48:36;16.60;;;13.90;;
7493;SDS011;3788;49.902;8.590;2023-10-19T06:51:03;13.47;;;12.03;;
7493;SDS011;3788;49.902;8.590;2023-10-19T06:53:31;15.33;;;13.13;;
7493;SDS011;3788;49.902;8.590;2023-10-19T06:55:58;12.90;;;11.40;;
7493;SDS011;3788;49.902;8.590;2023-10-19T06:58:26;15.13;;;12.90;;
7493;SDS011;3788;49.902;8.590;2023-10-19T07:00:52;13.77;;;11.87;;
7493;SDS011;3788;49.902;8.590;2023-10-19T07:03:24;12.70;;;11.13;;
7493;SDS011;3788;49.902;8.590;2023-10-19T07:05:53;15.47;;;12.53;;
7493;SDS011;3788;49.902;8.590;2023-10-19T07:08:21;14.53;;;12.30;;
7493;SDS011;3788;49.902;8.590;2023-10-19T07:10:47;13.40;;;11.90;;
7493;SDS011;3788;49.902;8.590;2023-10-19T07:13:15;13.47;;;12.07;;
7493;SDS011;3788;49.902;8.590;2023-10-19T07:15:45;12.90;;;11.33;;
7493;SDS011;3788;49.902;8.590;2023-10-19T07:18:14;13.23;;;11.83;;
7493;SDS011;3788;49.902;8.590;2023-10-19T07:20:40;13.83;;;11.37;;
7493;SDS011;3788;49.902;8.590;2023-10-19T07:23:07;12.67;;;10.77;;
7493;SDS011;3788;49.902;8.590;2023-10-19T07:25:43;13.53;;;11.10;;
7493;SDS011;3788;49.902;8.590;2023-10-19T07:28:11;11.93;;;9.83;;
7493;SDS011;3788;49.902;8.590;2023-10-19T07:30:38;12.07;;;10.77;;
7493;SDS011;3788;49.902;8.590;2023-10-19T07:33:07;10.93;;;8.73;;
7493;SDS011;3788;49.902;8.590;2023-10-19T07:35:35;9.83;;;8.83;;
7493;SDS011;3788;49.902;8.590;2023-10-19T07:38:04;10.93;;;9.70;;
7493;SDS011;3788;49.902;8.590;2023-10-19T07:40:32;13.77;;;10.17;;
7493;SDS011;3788;49.902;8.590;2023-10-19T07:42:59;10.77;;;9.73;;
7493;SDS011;3788;49.902;8.590;2023-10-19T07:45:26;10.07;;;9.00;;
7493;SDS011;3788;49.902;8.590;2023-10-19T07:47:53;10.17;;;9.00;;
7493;SDS011;3788;49.902;8.590;2023-10-19T07:50:22;12.73;;;8.93;;
7493;SDS011;3788;49.902;8.590;2023-10-19T07:52:49;10.97;;;9.60;;
7493;SDS011;3788;49.902;8.590;2023-10-19T07:55:17;9.63;;;8.67;;
7493;SDS011;3788;49.902;8.590;2023-10-19T07:57:47;10.73;;;8.80;;
7493;SDS011;3788;49.902;8.590;2023-10-19T08:00:15;10.70;;;9.60;;
7493;SDS011;3788;49.902;8.590;2023-10-19T08:02:43;10.80;;;9.20;;
7493;SDS011;3788;49.902;8.590;2023-10-19T08:05:11;10.13;;;8.43;;
7493;SDS011;3788;49.902;8.590;2023-10-19T08:07:39;9.13;;;8.27;;
7493;SDS011;3788;49.902;8.590;2023-10-19T08:10:08;8.83;;;7.90;;
7493;SDS011;3788;49.902;8.590;2023-10-19T08:12:35;9.27;;;8.23;;
7493;SDS011;3788;49.902;8.590;2023-10-19T08:15:02;9.40;;;8.10;;
7493;SDS011;3788;49.902;8.590;2023-10-19T08:17:31;9.63;;;8.73;;
7493;SDS011;3788;49.902;8.590;2023-10-19T08:19:58;10.60;;;8.20;;
7493;SDS011;3788;49.902;8.590;2023-10-19T08:22:27;10.40;;;8.60;;
7493;SDS011;3788;49.902;8.590;2023-10-19T08:24:56;10.10;;;8.03;;
7493;SDS011;3788;49.902;8.590;2023-10-19T08:27:23;11.03;;;9.23;;
7493;SDS011;3788;49.902;8.590;2023-10-19T08:29:50;9.87;;;8.33;;
7493;SDS011;3788;49.902;8.590;2023-10-19T08:32:16;8.83;;;7.50;;
7493;SDS011;3788;49.902;8.590;2023-10-19T08:34:43;10.80;;;7.40;;
7493;SDS011;3788;49.902;8.590;2023-10-19T08:37:10;8.47;;;7.67;;
7493;SDS011;3788;49.902;8.590;2023-10-19T08:39:36;9.20;;;7.97;;
7493;SDS011;3788;49.902;8.590;2023-10-19T08:42:04;8.37;;;7.20;;
7493;SDS011;3788;49.902;8.590;2023-10-19T08:44:32;6.60;;;6.00;;
7493;SDS011;3788;49.902;8.590;2023-10-19T08:46:59;6.13;;;5.53;;
7493;SDS011;3788;49.902;8.590;2023-10-19T08:49:26;5.90;;;5.40;;
7493;SDS011;3788;49.902;8.590;2023-10-19T08:51:53;6.70;;;5.67;;
7493;SDS011;3788;49.902;8.590;2023-10-19T08:54:20;5.20;;;4.70;;
7493;SDS011;3788;49.902;8.590;2023-10-19T08:56:51;4.47;;;3.93;;
7493;SDS011;3788;49.902;8.590;2023-10-19T08:59:19;6.60;;;5.27;;
7493;SDS011;3788;49.902;8.590;2023-10-19T09:01:46;7.20;;;5.37;;
7493;SDS011;3788;49.902;8.590;2023-10-19T09:04:14;7.03;;;5.50;;
7493;SDS011;3788;49.902;8.590;2023-10-19T09:06:41;5.60;;;4.97;;
7493;SDS011;3788;49.902;8.590;2023-10-19T09:09:08;5.70;;;4.93;;
7493;SDS011;3788;49.902;8.590;2023-10-19T09:11:41;5.40;;;4.87;;
7493;SDS011;3788;49.902;8.590;2023-10-19T09:14:08;6.97;;;4.80;;
7493;SDS011;3788;49.902;8.590;2023-10-19T09:16:39;6.23;;;5.43;;
7493;SDS011;3788;49.902;8.590;2023-10-19T09:19:20;4.83;;;4.43;;
7493;SDS011;3788;49.902;8.590;2023-10-19T09:21:47;6.13;;;4.80;;
7493;SDS011;3788;49.902;8.590;2023-10-19T09:24:14;4.73;;;4.33;;
7493;SDS011;3788;49.902;8.590;2023-10-19T09:26:41;4.43;;;4.03;;
7493;SDS011;3788;49.902;8.590;2023-10-19T09:29:08;4.57;;;4.07;;
7493;SDS011;3788;49.902;8.590;2023-10-19T09:31:44;4.83;;;4.27;;
7493;SDS011;3788;49.902;8.590;2023-10-19T09:34:12;4.37;;;3.97;;
7493;SDS011;3788;49.902;8.590;2023-10-19T09:36:42;4.10;;;3.70;;
7493;SDS011;3788;49.902;8.590;2023-10-19T09:39:09;4.17;;;3.60;;
7493;SDS011;3788;49.902;8.590;2023-10-19T09:41:37;5.13;;;4.20;;
7493;SDS011;3788;49.902;8.590;2023-10-19T09:44:06;3.67;;;3.30;;
7493;SDS011;3788;49.902;8.590;2023-10-19T09:46:38;3.90;;;3.60;;
7493;SDS011;3788;49.902;8.590;2023-10-19T09:49:08;4.33;;;3.90;;
7493;SDS011;3788;49.902;8.590;2023-10-19T09:51:38;4.70;;;4.30;;
7493;SDS011;3788;49.902;8.590;2023-10-19T09:54:07;4.03;;;3.60;;
7493;SDS011;3788;49.902;8.590;2023-10-19T09:56:40;4.63;;;3.73;;
7493;SDS011;3788;49.902;8.590;2023-10-19T09:59:11;3.93;;;3.63;;
7493;SDS011;3788;49.902;8.590;2023-10-19T10:04:37;4.17;;;3.80;;
7493;SDS011;3788;49.902;8.590;2023-10-19T10:07:05;4.77;;;3.50;;
7493;SDS011;3788;49.902;8.590;2023-10-19T10:09:32;3.23;;;2.83;;
7493;SDS011;3788;49.902;8.590;2023-10-19T10:12:18;3.97;;;3.27;;
7493;SDS011;3788;49.902;8.590;2023-10-19T10:14:53;4.10;;;3.40;;
7493;SDS011;3788;49.902;8.590;2023-10-19T10:17:26;5.63;;;3.07;;
7493;SDS011;3788;49.902;8.590;2023-10-19T10:19:55;4.10;;;3.07;;
7493;SDS011;3788;49.902;8.590;2023-10-19T10:22:24;3.10;;;2.80;;
7493;SDS011;3788;49.902;8.590;2023-10-19T10:24:55;3.70;;;2.30;;
7493;SDS011;3788;49.902;8.590;2023-10-19T10:27:22;2.33;;;2.20;;
7493;SDS011;3788;49.902;8.590;2023-10-19T10:29:58;3.50;;;2.47;;
7493;SDS011;3788;49.902;8.590;2023-10-19T10:32:43;4.67;;;2.20;;
7493;SDS011;3788;49.902;8.590;2023-10-19T10:35:11;3.30;;;2.67;;
7493;SDS011;3788;49.902;8.590;2023-10-19T10:38:16;2.53;;;2.20;;
7493;SDS011;3788;49.902;8.590;2023-10-19T10:40:43;3.67;;;2.73;;
7493;SDS011;3788;49.902;8.590;2023-10-19T10:43:10;2.90;;;2.33;;
7493;SDS011;3788;49.902;8.590;2023-10-19T10:45:37;3.00;;;2.27;;
7493;SDS011;3788;49.902;8.590;2023-10-19T10:48:04;3.30;;;2.80;;
7493;SDS011;3788;49.902;8.590;2023-10-19T10:50:39;4.83;;;2.80;;
7493;SDS011;3788;49.902;8.590;2023-10-19T10:53:06;2.60;;;2.40;;
7493;SDS011;3788;49.902;8.590;2023-10-19T10:55:33;4.33;;;2.70;;
7493;SDS011;3788;49.902;8.590;2023-10-19T10:58:00;4.63;;;3.10;;
7493;SDS011;3788;49.902;8.590;2023-10-19T11:00:26;3.13;;;2.67;;
7493;SDS011;3788;49.902;8.590;2023-10-19T11:03:00;4.93;;;2.83;;
7493;SDS011;3788;49.902;8.590;2023-10-19T11:05:29;3.70;;;3.00;;
7493;SDS011;3788;49.902;8.590;2023-10-19T11:08:04;3.80;;;2.93;;
7493;SDS011;3788;49.902;8.590;2023-10-19T11:10:33;3.33;;;2.70;;
7493;SDS011;3788;49.902;8.590;2023-10-19T11:13:01;3.00;;;2.70;;
7493;SDS011;3788;49.902;8.590;2023-10-19T11:15:28;3.13;;;2.50;;
7493;SDS011;3788;49.902;8.590;2023-10-19T11:17:55;2.90;;;2.33;;
7493;SDS011;3788;49.902;8.590;2023-10-19T11:20:22;3.10;;;2.83;;
7493;SDS011;3788;49.902;8.590;2023-10-19T11:22:52;3.43;;;3.07;;
7493;SDS011;3788;49.902;8.590;2023-10-19T11:25:22;3.17;;;2.87;;
7493;SDS011;3788;49.902;8.590;2023-10-19T11:27:53;4.17;;;3.30;;
7493;SDS011;3788;49.902;8.590;2023-10-19T11:30:23;3.40;;;3.10;;
7493;SDS011;3788;49.902;8.590;2023-10-19T11:32:50;5.13;;;3.50;;
7493;SDS011;3788;49.902;8.590;2023-10-19T11:35:21;4.13;;;3.30;;
7493;SDS011;3788;49.902;8.590;2023-10-19T11:37:51;4.13;;;3.13;;
7493;SDS011;3788;49.902;8.590;2023-10-19T11:40:19;3.97;;;3.33;;
7493;SDS011;3788;49.902;8.590;2023-10-19T11:42:47;4.47;;;3.77;;
7493;SDS011;3788;49.902;8.590;2023-10-19T11:45:14;4.17;;;3.53;;
7493;SDS011;3788;49.902;8.590;2023-10-19T11:47:42;3.63;;;3.27;;
7493;SDS011;3788;49.902;8.590;2023-10-19T11:50:09;3.93;;;3.40;;
7493;SDS011;3788;49.902;8.590;2023-10-19T11:52:40;4.20;;;3.80;;
7493;SDS011;3788;49.902;8.590;2023-10-19T11:55:07;3.40;;;3.10;;
7493;SDS011;3788;49.902;8.590;2023-10-19T11:57:34;4.07;;;3.30;;
7493;SDS011;3788;49.902;8.590;2023-10-19T12:00:02;3.57;;;3.27;;
7493;SDS011;3788;49.902;8.590;2023-10-19T12:02:33;5.40;;;3.93;;
7493;SDS011;3788;49.902;8.590;2023-10-19T12:05:02;4.53;;;3.33;;
7493;SDS011;3788;49.902;8.590;2023-10-19T12:07:29;3.37;;;3.00;;
7493;SDS011;3788;49.902;8.590;2023-10-19T12:09:57;3.47;;;3.00;;
7493;SDS011;3788;49.902;8.590;2023-10-19T12:12:24;4.90;;;4.07;;
7493;SDS011;3788;49.902;8.590;2023-10-19T12:14:51;5.83;;;4.03;;
7493;SDS011;3788;49.902;8.590;2023-10-19T12:17:20;3.90;;;3.40;;
7493;SDS011;3788;49.902;8.590;2023-10-19T12:19:49;3.70;;;3.37;;
7493;SDS011;3788;49.902;8.590;2023-10-19T12:22:16;4.17;;;3.77;;
7493;SDS011;3788;49.902;8.590;2023-10-19T12:24:42;6.80;;;4.07;;
7493;SDS011;3788;49.902;8.590;2023-10-19T12:27:09;3.30;;;3.00;;
7493;SDS011;3788;49.902;8.590;2023-10-19T12:29:38;4.07;;;3.43;;
7493;SDS011;3788;49.902;8.590;2023-10-19T12:32:05;3.97;;;3.10;;
7493;SDS011;3788;49.902;8.590;2023-10-19T12:34:35;3.40;;;3.10;;
7493;SDS011;3788;49.902;8.590;2023-10-19T12:37:02;4.47;;;2.93;;
7493;SDS011;3788;49.902;8.590;2023-10-19T12:39:29;4.27;;;2.80;;
7493;SDS011;3788;49.902;8.590;2023-10-19T12:42:07;3.40;;;3.10;;
7493;SDS011;3788;49.902;8.590;2023-10-19T12:44:34;3.87;;;3.47;;
7493;SDS011;3788;49.902;8.590;2023-10-19T12:47:06;3.33;;;2.83;;
7493;SDS011;3788;49.902;8.590;2023-10-19T12:49:37;3.20;;;2.90;;
7493;SDS011;3788;49.902;8.590;2023-10-19T12:52:04;3.27;;;2.97;;
7493;SDS011;3788;49.902;8.590;2023-10-19T12:54:32;3.60;;;3.23;;
7493;SDS011;3788;49.902;8.590;2023-10-19T12:56:59;3.57;;;3.00;;
7493;SDS011;3788;49.902;8.590;2023-10-19T12:59:28;4.77;;;3.07;;
7493;SDS011;3788;49.902;8.590;2023-10-19T13:01:55;5.10;;;3.73;;
7493;SDS011;3788;49.902;8.590;2023-10-19T13:04:24;4.00;;;3.53;;
7493;SDS011;3788;49.902;8.590;2023-10-19T13:06:52;5.47;;;3.43;;
7493;SDS011;3788;49.902;8.590;2023-10-19T13:09:22;3.73;;;3.30;;
7493;SDS011;3788;49.902;8.590;2023-10-19T13:11:55;4.10;;;3.70;;
7493;SDS011;3788;49.902;8.590;2023-10-19T13:14:23;5.00;;;3.57;;
7493;SDS011;3788;49.902;8.590;2023-10-19T13:16:49;3.70;;;3.13;;
7493;SDS011;3788;49.902;8.590;2023-10-19T13:19:17;3.50;;;3.20;;
7493;SDS011;3788;49.902;8.590;2023-10-19T13:21:45;4.57;;;3.40;;
7493;SDS011;3788;49.902;8.590;2023-10-19T13:24:13;5.37;;;3.93;;
7493;SDS011;3788;49.902;8.590;2023-10-19T13:26:41;3.50;;;3.20;;
7493;SDS011;3788;49.902;8.590;2023-10-19T13:29:11;3.93;;;3.53;;
7493;SDS011;3788;49.902;8.590;2023-10-19T13:31:38;4.80;;;4.13;;
7493;SDS011;3788;49.902;8.590;2023-10-19T13:34:05;4.43;;;3.97;;
7493;SDS011;3788;49.902;8.590;2023-10-19T13:36:35;6.60;;;4.17;;
7493;SDS011;3788;49.902;8.590;2023-10-19T13:39:04;4.20;;;3.80;;
7493;SDS011;3788;49.902;8.590;2023-10-19T13:41:33;4.07;;;3.33;;
7493;SDS011;3788;49.902;8.590;2023-10-19T13:43:59;4.97;;;4.10;;
7493;SDS011;3788;49.902;8.590;2023-10-19T13:46:26;4.40;;;3.50;;
7493;SDS011;3788;49.902;8.590;2023-10-19T13:48:54;3.77;;;3.13;;
7493;SDS011;3788;49.902;8.590;2023-10-19T13:51:20;5.70;;;4.03;;
7493;SDS011;3788;49.902;8.590;2023-10-19T13:53:47;3.97;;;3.63;;
7493;SDS011;3788;49.902;8.590;2023-10-19T13:56:15;7.57;;;4.10;;
7493;SDS011;3788;49.902;8.590;2023-10-19T13:58:43;5.20;;;4.10;;
7493;SDS011;3788;49.902;8.590;2023-10-19T14:01:11;5.27;;;4.33;;
7493;SDS011;3788;49.902;8.590;2023-10-19T14:03:38;5.47;;;4.80;;
7493;SDS011;3788;49.902;8.590;2023-10-19T14:06:05;5.77;;;4.27;;
7493;SDS011;3788;49.902;8.590;2023-10-19T14:08:37;5.13;;;4.33;;
7493;SDS011;3788;49.902;8.590;2023-10-19T14:11:03;4.50;;;4.10;;
7493;SDS011;3788;49.902;8.590;2023-10-19T14:13:31;5.10;;;4.23;;
7493;SDS011;3788;49.902;8.590;2023-10-19T14:15:59;5.17;;;4.67;;
7493;SDS011;3788;49.902;8.590;2023-10-19T14:18:30;4.37;;;3.70;;
7493;SDS011;3788;49.902;8.590;2023-10-19T14:20:57;4.87;;;4.27;;
7493;SDS011;3788;49.902;8.590;2023-10-19T14:23:23;4.77;;;4.23;;
7493;SDS011;3788;49.902;8.590;2023-10-19T14:25:50;4.80;;;4.20;;
7493;SDS011;3788;49.902;8.590;2023-10-19T14:28:17;4.60;;;4.00;;
7493;SDS011;3788;49.902;8.590;2023-10-19T14:30:44;5.57;;;4.33;;
7493;SDS011;3788;49.902;8.590;2023-10-19T14:33:12;5.00;;;4.03;;
7493;SDS011;3788;49.902;8.590;2023-10-19T14:35:39;5.33;;;3.77;;
7493;SDS011;3788;49.902;8.590;2023-10-19T14:38:07;4.70;;;3.47;;
7493;SDS011;3788;49.902;8.590;2023-10-19T14:40:34;3.67;;;3.37;;
7493;SDS011;3788;49.902;8.590;2023-10-19T14:43:01;3.57;;;3.27;;
7493;SDS011;3788;49.902;8.590;2023-10-19T14:45:28;3.60;;;3.30;;
7493;SDS011;3788;49.902;8.590;2023-10-19T14:47:55;5.20;;;4.70;;
7493;SDS011;3788;49.902;8.590;2023-10-19T14:50:25;4.80;;;4.40;;
7493;SDS011;3788;49.902;8.590;2023-10-19T14:52:53;4.83;;;4.03;;
7493;SDS011;3788;49.902;8.590;2023-10-19T14:55:20;4.40;;;4.00;;
7493;SDS011;3788;49.902;8.590;2023-10-19T14:57:49;4.20;;;3.60;;
7493;SDS011;3788;49.902;8.590;2023-10-19T15:00:18;4.17;;;3.87;;
7493;SDS011;3788;49.902;8.590;2023-10-19T15:02:51;3.97;;;3.63;;
7493;SDS011;3788;49.902;8.590;2023-10-19T15:05:21;4.13;;;3.83;;
7493;SDS011;3788;49.902;8.590;2023-10-19T15:07:51;3.83;;;3.47;;
7493;SDS011;3788;49.902;8.590;2023-10-19T15:10:19;4.33;;;3.93;;
7493;SDS011;3788;49.902;8.590;2023-10-19T15:12:48;5.67;;;4.10;;
7493;SDS011;3788;49.902;8.590;2023-10-19T15:15:15;5.47;;;4.50;;
7493;SDS011;3788;49.902;8.590;2023-10-19T15:17:42;7.30;;;6.00;;